Flight Track Log - Related Links

Times and Time Zones

All times are in EDT time to prevent confusion due to time zone crossing. See the SWA1688 flight status page for this flight to view local times or setup timezone preferences in your user account.

Time Position Orientation Groundspeed Altitude Reporting Facility
EDT Latitude Longitude Course Direction KTS MPH feet Rate Location/Type
Sat 11:04:17 AM 39.1667 -76.7333 360° North 178 205 2,000  Level Potomac TRACON
Sat 11:04:17 AM 39.1667 -76.7333 153° Southeast 178 205 2,000 2,200 Level Potomac TRACON
Sat 11:05:17 AM 39.1167 -76.7000 153° Southeast 223 257 4,200 2,200 Climbing Potomac TRACON
Sat 11:05:17 AM 39.1167 -76.7000 153° Southeast 223 257 4,200 2,900 Level Potomac TRACON
Sat 11:06:17 AM 39.0667 -76.6333 134° Southeast 276 318 7,100 2,900 Climbing Potomac TRACON
Sat 11:06:17 AM 39.0667 -76.6333 134° Southeast 276 318 7,100 3,556 Level Potomac TRACON
Sat 11:07:11 AM 39.0167 -76.5833 142° Southeast 300 345 10,300 3,556 Climbing Potomac TRACON
Sat 11:07:11 AM 39.0167 -76.5833 142° Southeast 300 345 10,300 1,762 Level Potomac TRACON
Sat 11:09:17 AM 38.8411 -76.5083 162° South 355 409 14,000 1,762 Climbing Washington Center
Sat 11:09:17 AM 38.8411 -76.5083 162° South 355 409 14,000 98 Level Washington Center
Sat 11:10:18 AM 38.7614 -76.5633 208° Southwest 326 375 14,100 98 Climbing Washington Center
Sat 11:10:18 AM 38.7614 -76.5633 208° Southwest 326 375 14,100  Level Washington Center
Sat 11:11:15 AM 38.6839 -76.6261 212° Southwest 326 375 14,100  Level Washington Center
Sat 11:11:15 AM 38.6839 -76.6261 212° Southwest 326 375 14,100  Level Washington Center
Sat 11:12:17 AM 38.5881 -76.6117 173° South 325 374 14,100  Level Washington Center
Sat 11:12:17 AM 38.5881 -76.6117 173° South 325 374 14,100 -100 Level Washington Center
Sat 11:13:17 AM 38.4964 -76.5839 167° South 331 381 14,000 -100 Descending Washington Center
Sat 11:13:17 AM 38.4964 -76.5839 167° South 331 381 14,000  Level Washington Center
Sat 11:14:18 AM 38.4028 -76.5561 167° South 337 388 14,000  Level Washington Center
Sat 11:14:18 AM 38.4028 -76.5561 167° South 337 388 14,000  Level Washington Center
Sat 11:15:16 AM 38.3133 -76.5311 168° South 337 388 14,000  Level Washington Center
Sat 11:15:16 AM 38.3133 -76.5311 168° South 337 388 14,000  Level Washington Center
Sat 11:16:17 AM 38.2219 -76.5008 165° South 337 388 14,000  Level Washington Center
Sat 11:16:17 AM 38.2219 -76.5008 165° South 337 388 14,000  Level Washington Center
Sat 11:17:18 AM 38.1303 -76.4761 168° South 337 388 14,000  Level Washington Center
Sat 11:17:18 AM 38.1303 -76.4761 168° South 337 388 14,000  Level Washington Center
Sat 11:18:18 AM 38.0367 -76.4486 167° South 337 388 14,000  Level Washington Center
Sat 11:18:18 AM 38.0367 -76.4486 167° South 337 388 14,000  Level Washington Center
Sat 11:19:17 AM 37.9450 -76.4211 167° South 337 388 14,000  Level Washington Center
Sat 11:19:17 AM 37.9450 -76.4211 167° South 337 388 14,000 200 Level Washington Center
Sat 11:19:47 AM 37.8889 -76.4075 169° South 341 392 14,100 200 Climbing Washington Center
Sat 11:19:47 AM 37.8889 -76.4075 169° South 341 392 14,100 -200 Level Washington Center
Sat 11:20:17 AM 37.8514 -76.3967 167° South 337 388 14,000 -200 Descending Washington Center
Sat 11:20:17 AM 37.8514 -76.3967 167° South 337 388 14,000 -1,133 Level Washington Center
Sat 11:26:17 AM 37.3706 -76.2111 163° South 290 334 7,200 -1,203 Descending Washington Center
Sat 11:27:11 AM 37.2978 -76.1844 164° South 280 322 5,700 -1,388 Descending Washington Center
Sat 11:28:18 AM 37.2228 -76.1631 167° South 284 327 4,400 -1,180 Descending Washington Center
Sat 11:29:13 AM 37.1519 -76.1469 170° South 257 296 3,300 -1,033 Descending Washington Center
Sat 11:30:20 AM 37.0769 -76.1256 167° South 236 272 2,300 -787 Descending Washington Center
Sat 11:31:15 AM 37.0247 -76.1200 175° South 209 241 1,700 -655 Descending Washington Center

Login

Don't have an account? Register now (free) for customized features, flight alerts, and more!